Time;durP1;ratioP1;P1;durP2;ratioP2;P2;SDS_P1;SDS_P2;PMS_P1;PMS_P2;Temp;Humidity;BMP_temperature;BMP_pressure;BME280_temperature;BME280_humidity;BME280_pressure;Samples;Min_cycle;Max_cycle;Signal;HPM_P1;HPM_P2
2022/05/14 19:25:53;;;;;;;15.60;5.13;;;;;;;19.35;47.06;101940.00;6152175;22;20021;-81
2022/05/14 19:28:18;;;;;;;13.43;4.47;;;;;;;19.29;47.56;101932.50;6254746;23;20016;-80
2022/05/14 19:30:44;;;;;;;14.23;4.85;;;;;;;19.16;47.64;101930.13;6256897;23;20000;-81
2022/05/14 19:33:10;;;;;;;13.60;4.88;;;;;;;19.02;48.55;101934.16;6231127;23;20069;-81
2022/05/14 19:35:41;;;;;;;18.35;5.20;;;;;;;18.99;48.32;101931.75;6258817;23;20012;-80
2022/05/14 19:38:13;;;;;;;17.38;4.90;;;;;;;18.93;48.39;101940.41;6254748;23;20011;-81
2022/05/14 19:40:43;;;;;;;12.90;5.07;;;;;;;18.83;48.89;101940.41;6255430;23;20004;-81
2022/05/14 19:43:24;;;;;;;15.23;5.00;;;;;;;18.86;48.72;101942.81;6234761;23;20011;-81
2022/05/14 19:45:56;;;;;;;22.42;6.18;;;;;;;18.70;49.61;101939.84;6232396;23;20012;-81
2022/05/14 19:48:22;;;;;;;14.38;5.38;;;;;;;18.65;49.64;101945.69;6228242;23;20008;-81
2022/05/14 19:50:50;;;;;;;16.08;5.10;;;;;;;18.55;49.92;101949.34;6230676;23;20417;-81
2022/05/14 19:53:19;;;;;;;20.20;5.55;;;;;;;18.48;50.36;101949.06;6233869;23;20012;-81
2022/05/14 19:55:45;;;;;;;21.60;8.63;;;;;;;18.40;50.96;101957.88;6232331;23;20024;-81
2022/05/14 19:58:14;;;;;;;20.02;7.68;;;;;;;18.30;51.01;101957.88;6234195;23;20009;-80
2022/05/14 20:00:42;;;;;;;17.15;6.00;;;;;;;18.25;51.32;101956.56;6216094;23;20008;-81
2022/05/14 20:03:08;;;;;;;19.90;5.47;;;;;;;18.22;51.30;101964.91;6240248;23;20047;-81
2022/05/14 20:05:37;;;;;;;21.85;5.70;;;;;;;18.09;51.55;101962.53;6210614;23;20035;-80
2022/05/14 20:08:03;;;;;;;;;;;;;;;18.28;48.78;101962.53;6235852;23;20009;-81
2022/05/14 20:10:28;;;;;;;17.95;5.45;;;;;;;18.09;50.76;101967.91;6231175;23;19927;-81
2022/05/14 20:12:54;;;;;;;20.40;6.15;;;;;;;18.02;51.45;101966.75;6210485;23;20051;-81
2022/05/14 20:15:20;;;;;;;17.17;5.20;;;;;;;17.94;52.47;101970.13;6239711;23;20003;-80
2022/05/14 20:23:13;;;;;;;16.17;5.13;;;;;;;17.71;52.70;101969.47;6236577;23;20046;-81
2022/05/14 20:25:42;;;;;;;20.45;6.13;;;;;;;17.67;52.38;101971.59;6226014;23;20052;-81
2022/05/14 20:28:08;;;;;;;17.70;5.38;;;;;;;17.67;52.65;101979.66;6221421;23;20005;-81
2022/05/14 20:30:33;;;;;;;17.80;5.10;;;;;;;17.58;52.87;101975.09;6219208;23;20083;-81
2022/05/14 20:32:58;;;;;;;23.60;6.30;;;;;;;17.54;53.29;101969.13;6192520;23;20030;-81
2022/05/14 20:35:24;;;;;;;17.37;5.30;;;;;;;17.42;53.29;101974.72;6220904;23;20445;-81
2022/05/14 20:37:50;;;;;;;13.93;5.07;;;;;;;17.39;53.39;101973.19;6220508;23;20377;-81
2022/05/14 20:40:16;;;;;;;19.65;5.60;;;;;;;17.34;53.23;101970.91;6220176;23;20004;-81
2022/05/14 20:42:41;;;;;;;17.48;5.15;;;;;;;17.30;53.41;101982.91;6220868;23;20020;-81
2022/05/14 20:45:07;;;;;;;20.40;5.03;;;;;;;17.18;53.88;101978.59;6221735;23;20008;-81
2022/05/14 20:47:39;;;;;;;15.43;5.20;;;;;;;17.09;54.25;101985.59;6221949;23;20077;-81
2022/05/14 20:50:07;;;;;;;21.85;5.78;;;;;;;17.07;54.11;101986.72;6218795;23;20008;-81
2022/05/14 20:52:33;;;;;;;25.25;6.00;;;;;;;16.99;54.27;101988.22;6190787;23;20334;-81
2022/05/14 20:54:58;;;;;;;17.30;5.35;;;;;;;16.96;54.49;101991.16;6219233;23;20005;-81
2022/05/14 20:57:24;;;;;;;21.70;5.88;;;;;;;16.92;54.29;101984.38;6192965;23;20017;-82
2022/05/14 20:59:49;;;;;;;21.50;5.80;;;;;;;16.91;54.99;101985.34;6221121;23;20015;-81
2022/05/14 21:02:15;;;;;;;20.67;5.88;;;;;;;16.84;54.84;101989.50;6239467;23;20008;-82
2022/05/14 21:04:41;;;;;;;18.63;5.32;;;;;;;16.83;54.53;101990.47;6239350;23;20025;-82
2022/05/14 21:07:09;;;;;;;21.67;6.22;;;;;;;16.77;54.52;101989.19;6238530;23;20001;-81
2022/05/14 21:09:35;;;;;;;19.55;5.68;;;;;;;16.71;54.94;101983.50;6240416;23;20005;-81
2022/05/14 21:12:00;;;;;;;18.35;5.55;;;;;;;16.68;54.75;101994.47;6240090;23;20009;-81
2022/05/14 21:14:26;;;;;;;22.92;6.13;;;;;;;16.60;55.20;101987.06;6213283;23;20369;-82
2022/05/14 21:16:53;;;;;;;21.88;6.32;;;;;;;16.50;55.65;101984.28;6240364;23;19996;-82
2022/05/14 21:19:20;;;;;;;18.35;5.65;;;;;;;16.50;55.47;101995.03;6238456;23;20039;-82
2022/05/14 21:21:47;;;;;;;24.15;6.20;;;;;;;16.47;55.31;101984.59;6242133;23;20007;-82
2022/05/14 21:24:15;;;;;;;18.75;5.65;;;;;;;16.44;55.46;101988.34;6242379;23;20015;-83
2022/05/14 21:26:41;;;;;;;20.70;5.13;;;;;;;16.36;56.19;101980.09;6241702;23;20019;-82
2022/05/14 21:29:07;;;;;;;23.08;6.32;;;;;;;16.33;55.83;101990.22;6239060;23;20008;-83
2022/05/14 21:31:34;;;;;;;21.30;5.97;;;;;;;16.27;56.29;101984.41;6239622;23;20004;-83
2022/05/14 21:39:27;;;;;;;22.35;5.90;;;;;;;16.07;56.98;101987.84;6240424;23;20018;-82
2022/05/14 21:41:54;;;;;;;21.80;6.10;;;;;;;16.04;57.04;101990.81;6237865;23;20000;-82
2022/05/14 21:44:19;;;;;;;24.45;6.28;;;;;;;15.98;57.37;101983.25;6236885;23;20004;-82
2022/05/14 21:46:45;;;;;;;22.95;6.40;;;;;;;15.94;57.51;101982.66;6236564;23;20008;-81
2022/05/14 21:49:11;;;;;;;21.63;5.90;;;;;;;15.88;57.30;101980.47;6240774;23;20046;-82
2022/05/14 21:51:36;;;;;;;23.38;5.57;;;;;;;15.82;58.11;101979.16;6235513;23;20073;-81
2022/05/14 21:54:02;;;;;;;21.95;6.93;;;;;;;15.76;57.90;101979.63;6205373;23;20004;-84
2022/05/14 21:56:28;;;;;;;18.85;6.18;;;;;;;15.71;57.92;101987.16;6214190;23;20043;-81
2022/05/14 21:58:53;;;;;;;21.38;6.40;;;;;;;15.71;57.56;101985.31;6238416;23;20005;-81
2022/05/14 22:01:30;;;;;;;21.60;6.00;;;;;;;15.65;58.29;101993.84;6238642;23;20036;-81
2022/05/14 22:03:57;;;;;;;26.08;5.93;;;;;;;15.60;58.37;101993.34;6236560;23;20005;-81
2022/05/14 22:06:24;;;;;;;25.90;6.22;;;;;;;15.55;58.57;101995.56;6239201;23;20007;-82
2022/05/14 22:08:49;;;;;;;25.58;6.57;;;;;;;15.52;58.57;101998.47;6235919;23;20000;-82
2022/05/14 22:11:19;;;;;;;22.92;6.30;;;;;;;15.52;57.89;101994.00;6235933;23;20050;-82
2022/05/14 22:13:45;;;;;;;23.10;6.68;;;;;;;15.45;58.74;101987.41;6239806;23;19997;-82
2022/05/14 22:16:10;;;;;;;23.73;6.43;;;;;;;15.44;58.31;101991.06;6244365;23;20036;-82
2022/05/14 22:18:38;;;;;;;22.27;6.53;;;;;;;15.40;58.26;101997.63;6243938;23;20016;-81
2022/05/14 22:21:05;;;;;;;21.40;6.43;;;;;;;15.41;57.87;101995.81;6241438;23;20035;-82
2022/05/14 22:23:31;;;;;;;21.98;6.60;;;;;;;15.34;58.13;101987.41;6235717;23;20092;-82
2022/05/14 22:25:57;;;;;;;25.13;7.05;;;;;;;15.32;58.11;101992.88;6234809;23;20020;-82
2022/05/14 22:28:23;;;;;;;23.23;6.53;;;;;;;15.29;58.54;101984.25;6236895;23;20056;-81
2022/05/14 22:30:51;;;;;;;24.65;5.95;;;;;;;15.28;57.90;102001.28;6236703;23;20008;-82
2022/05/14 22:33:17;;;;;;;23.10;6.37;;;;;;;15.28;58.39;101994.09;6233596;23;20012;-82
2022/05/14 22:35:43;;;;;;;21.58;6.50;;;;;;;15.27;58.03;101988.84;6234980;23;20083;-83
2022/05/14 22:38:09;;;;;;;21.83;6.78;;;;;;;15.20;58.56;101998.34;6237670;23;20008;-82
2022/05/14 22:43:19;;;;;;;19.52;6.00;;;;;;;15.17;58.21;101992.25;6234816;23;20019;-82
2022/05/14 22:45:45;;;;;;;17.10;6.18;;;;;;;15.11;58.73;101994.56;6231858;23;20031;-82
2022/05/14 22:48:12;;;;;;;23.70;7.25;;;;;;;15.05;59.29;101987.00;6204598;23;20008;-82
2022/05/14 22:50:40;;;;;;;22.98;6.15;;;;;;;15.01;59.35;101982.88;6230798;23;20057;-82
2022/05/14 22:53:06;;;;;;;20.20;6.85;;;;;;;15.00;58.93;101992.69;6228567;23;20004;-83
2022/05/14 22:55:32;;;;;;;22.65;6.18;;;;;;;14.96;58.71;101991.25;6231606;23;20032;-83
2022/05/14 22:58:01;;;;;;;20.67;6.28;;;;;;;14.94;58.49;101991.38;6205256;23;20012;-83
2022/05/14 23:00:27;;;;;;;23.65;6.97;;;;;;;14.92;58.19;101992.44;6233186;23;20008;-83
2022/05/14 23:02:56;;;;;;;23.05;6.50;;;;;;;14.88;58.68;101993.66;6233177;23;20030;-82
2022/05/14 23:05:21;;;;;;;19.67;6.85;;;;;;;14.87;58.92;101992.81;6234977;23;20064;-82
2022/05/14 23:07:52;;;;;;;23.05;6.75;;;;;;;14.83;59.41;101987.81;6233573;23;20020;-82
2022/05/14 23:10:17;;;;;;;25.73;6.60;;;;;;;14.79;59.41;101990.72;6206608;23;20012;-82
2022/05/14 23:12:43;;;;;;;21.00;6.97;;;;;;;14.76;59.41;101982.91;6233966;23;20402;-82
2022/05/14 23:15:09;;;;;;;27.02;7.68;;;;;;;14.72;59.72;101983.25;6233471;23;19992;-82
2022/05/14 23:17:35;;;;;;;20.65;6.40;;;;;;;14.69;59.49;101976.34;6232966;23;20005;-83
2022/05/14 23:20:06;;;;;;;28.70;7.88;;;;;;;14.69;58.86;101973.66;6235611;23;20008;-82
2022/05/14 23:22:33;;;;;;;21.48;6.57;;;;;;;14.67;58.95;101974.75;6234159;23;20004;-83
2022/05/14 23:24:59;;;;;;;20.55;6.15;;;;;;;14.60;59.26;101969.00;6234787;23;20004;-82
2022/05/14 23:27:26;;;;;;;18.92;6.32;;;;;;;14.58;58.51;101965.56;6233255;23;20435;-82
2022/05/14 23:29:51;;;;;;;28.75;7.20;;;;;;;14.55;58.88;101969.31;6235474;23;20064;-82
2022/05/14 23:32:16;;;;;;;24.90;7.50;;;;;;;14.53;59.16;101965.06;6233227;23;20389;-82
2022/05/14 23:34:42;;;;;;;25.10;6.73;;;;;;;14.51;59.38;101967.00;6235118;23;20276;-82
2022/05/14 23:37:07;;;;;;;27.60;6.95;;;;;;;14.47;59.27;101957.50;6235043;23;20240;-82
2022/05/14 23:39:32;;;;;;;29.55;7.55;;;;;;;14.42;59.77;101960.50;6235599;23;20004;-82
2022/05/14 23:41:57;;;;;;;19.83;6.60;;;;;;;14.40;59.78;101957.97;6233841;23;20008;-82
2022/05/14 23:44:24;;;;;;;23.70;6.80;;;;;;;14.38;59.48;101959.91;6235751;23;20303;-82
2022/05/14 23:46:51;;;;;;;21.35;6.60;;;;;;;14.34;59.90;101957.56;6235172;23;20756;-82
2022/05/14 23:49:16;;;;;;;20.58;6.15;;;;;;;14.35;59.87;101953.94;6235112;23;20007;-83
2022/05/14 23:51:45;;;;;;;23.77;7.05;;;;;;;14.31;59.71;101950.66;6235813;23;20005;-83
2022/05/14 23:54:10;;;;;;;19.38;6.70;;;;;;;14.29;60.22;101951.72;6236569;23;20036;-83
2022/05/14 23:56:35;;;;;;;25.05;7.28;;;;;;;14.25;60.06;101943.09;6235395;23;20001;-83
